sensor_id;sensor_type;location;lat;lon;timestamp;temperature;humidity
16283;DHT22;8249;48.708;9.030;2023-05-10T00:01:35;13.50;99.90
16283;DHT22;8249;48.708;9.030;2023-05-10T00:04:02;13.50;99.90
16283;DHT22;8249;48.708;9.030;2023-05-10T00:06:29;13.40;99.90
16283;DHT22;8249;48.708;9.030;2023-05-10T00:08:58;13.30;99.90
16283;DHT22;8249;48.708;9.030;2023-05-10T00:11:25;13.30;99.90
16283;DHT22;8249;48.708;9.030;2023-05-10T00:13:52;13.30;99.90
16283;DHT22;8249;48.708;9.030;2023-05-10T00:16:19;13.20;99.90
16283;DHT22;8249;48.708;9.030;2023-05-10T00:18:46;13.10;99.90
16283;DHT22;8249;48.708;9.030;2023-05-10T00:21:13;13.10;99.90
16283;DHT22;8249;48.708;9.030;2023-05-10T00:23:40;13.00;99.90
16283;DHT22;8249;48.708;9.030;2023-05-10T00:26:08;12.90;99.90
16283;DHT22;8249;48.708;9.030;2023-05-10T00:28:37;12.90;99.90
16283;DHT22;8249;48.708;9.030;2023-05-10T00:31:04;12.90;99.90
16283;DHT22;8249;48.708;9.030;2023-05-10T00:33:30;12.90;99.90
16283;DHT22;8249;48.708;9.030;2023-05-10T00:35:57;12.90;99.90
16283;DHT22;8249;48.708;9.030;2023-05-10T00:38:24;12.80;99.90
16283;DHT22;8249;48.708;9.030;2023-05-10T00:40:51;12.80;99.90
16283;DHT22;8249;48.708;9.030;2023-05-10T00:43:27;12.70;99.90
16283;DHT22;8249;48.708;9.030;2023-05-10T00:45:54;12.80;99.90
16283;DHT22;8249;48.708;9.030;2023-05-10T00:48:21;12.70;99.90
16283;DHT22;8249;48.708;9.030;2023-05-10T00:50:48;12.70;99.90
16283;DHT22;8249;48.708;9.030;2023-05-10T00:53:15;12.70;99.90
16283;DHT22;8249;48.708;9.030;2023-05-10T00:55:43;12.70;99.90
16283;DHT22;8249;48.708;9.030;2023-05-10T00:58:10;12.60;99.90
16283;DHT22;8249;48.708;9.030;2023-05-10T01:00:41;12.60;99.90
16283;DHT22;8249;48.708;9.030;2023-05-10T01:03:09;12.60;99.90
16283;DHT22;8249;48.708;9.030;2023-05-10T01:05:36;12.60;99.90
16283;DHT22;8249;48.708;9.030;2023-05-10T01:08:04;12.60;99.90
16283;DHT22;8249;48.708;9.030;2023-05-10T01:10:31;12.60;99.90
16283;DHT22;8249;48.708;9.030;2023-05-10T01:12:59;12.60;99.90
16283;DHT22;8249;48.708;9.030;2023-05-10T01:15:26;12.60;99.90
16283;DHT22;8249;48.708;9.030;2023-05-10T01:17:56;12.60;99.90
16283;DHT22;8249;48.708;9.030;2023-05-10T01:20:23;12.60;99.90
16283;DHT22;8249;48.708;9.030;2023-05-10T01:23:23;12.60;99.90
16283;DHT22;8249;48.708;9.030;2023-05-10T01:26:23;12.60;99.90
16283;DHT22;8249;48.708;9.030;2023-05-10T01:29:18;12.60;99.90
16283;DHT22;8249;48.708;9.030;2023-05-10T01:32:13;12.60;99.90
16283;DHT22;8249;48.708;9.030;2023-05-10T01:34:47;12.50;99.90
16283;DHT22;8249;48.708;9.030;2023-05-10T01:37:21;12.50;99.90
16283;DHT22;8249;48.708;9.030;2023-05-10T01:39:58;12.50;99.90
16283;DHT22;8249;48.708;9.030;2023-05-10T01:42:29;12.50;99.90
16283;DHT22;8249;48.708;9.030;2023-05-10T01:45:04;12.50;99.90
16283;DHT22;8249;48.708;9.030;2023-05-10T01:47:38;12.50;99.90
16283;DHT22;8249;48.708;9.030;2023-05-10T01:50:10;12.50;99.90
16283;DHT22;8249;48.708;9.030;2023-05-10T01:52:42;12.50;99.90
16283;DHT22;8249;48.708;9.030;2023-05-10T01:55:14;12.50;99.90
16283;DHT22;8249;48.708;9.030;2023-05-10T01:57:43;12.50;99.90
16283;DHT22;8249;48.708;9.030;2023-05-10T02:00:12;12.50;99.90
16283;DHT22;8249;48.708;9.030;2023-05-10T02:02:45;12.50;99.90
16283;DHT22;8249;48.708;9.030;2023-05-10T02:05:14;12.40;99.90
16283;DHT22;8249;48.708;9.030;2023-05-10T02:07:43;12.40;99.90
16283;DHT22;8249;48.708;9.030;2023-05-10T02:10:11;12.40;99.90
16283;DHT22;8249;48.708;9.030;2023-05-10T02:12:42;12.40;99.90
16283;DHT22;8249;48.708;9.030;2023-05-10T02:15:11;12.40;99.90
16283;DHT22;8249;48.708;9.030;2023-05-10T02:17:39;12.50;99.90
16283;DHT22;8249;48.708;9.030;2023-05-10T02:20:09;12.40;99.90
16283;DHT22;8249;48.708;9.030;2023-05-10T02:22:37;12.50;99.90
16283;DHT22;8249;48.708;9.030;2023-05-10T02:25:07;12.40;99.90
16283;DHT22;8249;48.708;9.030;2023-05-10T02:27:35;12.40;99.90
16283;DHT22;8249;48.708;9.030;2023-05-10T02:30:05;12.40;99.90
16283;DHT22;8249;48.708;9.030;2023-05-10T02:32:33;12.40;99.90
16283;DHT22;8249;48.708;9.030;2023-05-10T02:35:03;12.40;99.90
16283;DHT22;8249;48.708;9.030;2023-05-10T02:37:33;12.30;99.90
16283;DHT22;8249;48.708;9.030;2023-05-10T02:40:05;12.30;99.90
16283;DHT22;8249;48.708;9.030;2023-05-10T02:42:35;12.30;99.90
16283;DHT22;8249;48.708;9.030;2023-05-10T02:45:07;12.30;99.90
16283;DHT22;8249;48.708;9.030;2023-05-10T02:47:35;12.30;99.90
16283;DHT22;8249;48.708;9.030;2023-05-10T02:50:02;12.30;99.90
16283;DHT22;8249;48.708;9.030;2023-05-10T02:52:39;12.30;99.90
16283;DHT22;8249;48.708;9.030;2023-05-10T02:55:09;12.30;99.90
16283;DHT22;8249;48.708;9.030;2023-05-10T02:57:42;12.30;99.90
16283;DHT22;8249;48.708;9.030;2023-05-10T03:00:10;12.40;99.90
16283;DHT22;8249;48.708;9.030;2023-05-10T03:02:38;12.30;99.90
16283;DHT22;8249;48.708;9.030;2023-05-10T03:05:05;12.30;99.90
16283;DHT22;8249;48.708;9.030;2023-05-10T03:07:34;12.40;99.90
16283;DHT22;8249;48.708;9.030;2023-05-10T03:10:02;12.40;99.90
16283;DHT22;8249;48.708;9.030;2023-05-10T03:12:39;12.40;99.90
16283;DHT22;8249;48.708;9.030;2023-05-10T03:15:16;12.40;99.90
16283;DHT22;8249;48.708;9.030;2023-05-10T03:17:48;12.40;99.90
16283;DHT22;8249;48.708;9.030;2023-05-10T03:20:22;12.40;99.90
16283;DHT22;8249;48.708;9.030;2023-05-10T03:22:55;12.40;99.90
16283;DHT22;8249;48.708;9.030;2023-05-10T03:25:26;12.40;99.90
16283;DHT22;8249;48.708;9.030;2023-05-10T03:27:56;12.40;99.90
16283;DHT22;8249;48.708;9.030;2023-05-10T03:30:25;12.40;99.90
16283;DHT22;8249;48.708;9.030;2023-05-10T03:32:52;12.40;99.90
16283;DHT22;8249;48.708;9.030;2023-05-10T03:35:19;12.40;99.90
16283;DHT22;8249;48.708;9.030;2023-05-10T03:37:46;12.40;99.90
16283;DHT22;8249;48.708;9.030;2023-05-10T03:40:15;12.40;99.90
16283;DHT22;8249;48.708;9.030;2023-05-10T03:42:43;12.40;99.90
16283;DHT22;8249;48.708;9.030;2023-05-10T03:45:10;12.50;99.90
16283;DHT22;8249;48.708;9.030;2023-05-10T03:47:37;12.50;99.90
16283;DHT22;8249;48.708;9.030;2023-05-10T03:50:06;12.50;99.90
16283;DHT22;8249;48.708;9.030;2023-05-10T03:52:33;12.40;99.90
16283;DHT22;8249;48.708;9.030;2023-05-10T03:55:00;12.40;99.90
16283;DHT22;8249;48.708;9.030;2023-05-10T03:57:30;12.30;99.90
16283;DHT22;8249;48.708;9.030;2023-05-10T03:59:57;12.30;99.90
16283;DHT22;8249;48.708;9.030;2023-05-10T04:02:24;12.20;99.90
16283;DHT22;8249;48.708;9.030;2023-05-10T04:04:52;12.20;99.90
16283;DHT22;8249;48.708;9.030;2023-05-10T04:07:19;12.20;99.90
16283;DHT22;8249;48.708;9.030;2023-05-10T04:09:46;12.20;99.90
16283;DHT22;8249;48.708;9.030;2023-05-10T04:12:13;12.20;99.90
16283;DHT22;8249;48.708;9.030;2023-05-10T04:14:42;12.20;99.90
16283;DHT22;8249;48.708;9.030;2023-05-10T04:17:08;12.10;99.90
16283;DHT22;8249;48.708;9.030;2023-05-10T04:19:35;12.20;99.90
16283;DHT22;8249;48.708;9.030;2023-05-10T04:22:03;12.20;99.90
16283;DHT22;8249;48.708;9.030;2023-05-10T04:24:30;12.20;99.90
16283;DHT22;8249;48.708;9.030;2023-05-10T04:26:56;12.10;99.90
16283;DHT22;8249;48.708;9.030;2023-05-10T04:29:23;12.10;99.90
16283;DHT22;8249;48.708;9.030;2023-05-10T04:31:52;12.20;99.90
16283;DHT22;8249;48.708;9.030;2023-05-10T04:34:20;12.20;99.90
16283;DHT22;8249;48.708;9.030;2023-05-10T04:36:47;12.20;99.90
16283;DHT22;8249;48.708;9.030;2023-05-10T04:39:14;12.20;99.90
16283;DHT22;8249;48.708;9.030;2023-05-10T04:41:41;12.30;99.90
16283;DHT22;8249;48.708;9.030;2023-05-10T04:44:08;12.30;99.90
16283;DHT22;8249;48.708;9.030;2023-05-10T04:46:34;12.30;99.90
16283;DHT22;8249;48.708;9.030;2023-05-10T04:49:03;12.30;99.90
16283;DHT22;8249;48.708;9.030;2023-05-10T04:51:30;12.30;99.90
16283;DHT22;8249;48.708;9.030;2023-05-10T04:53:57;12.40;99.90
16283;DHT22;8249;48.708;9.030;2023-05-10T04:56:24;12.40;99.90
16283;DHT22;8249;48.708;9.030;2023-05-10T04:58:51;12.40;99.90
16283;DHT22;8249;48.708;9.030;2023-05-10T05:01:18;12.40;99.90
16283;DHT22;8249;48.708;9.030;2023-05-10T05:03:45;12.40;99.90
16283;DHT22;8249;48.708;9.030;2023-05-10T05:06:13;12.50;99.90
16283;DHT22;8249;48.708;9.030;2023-05-10T05:08:40;12.50;99.90
16283;DHT22;8249;48.708;9.030;2023-05-10T05:11:07;12.50;99.90
16283;DHT22;8249;48.708;9.030;2023-05-10T05:13:33;12.60;99.90
16283;DHT22;8249;48.708;9.030;2023-05-10T05:16:01;12.60;99.90
16283;DHT22;8249;48.708;9.030;2023-05-10T05:18:28;12.60;99.90
16283;DHT22;8249;48.708;9.030;2023-05-10T05:20:55;12.60;99.90
16283;DHT22;8249;48.708;9.030;2023-05-10T05:23:23;12.60;99.90
16283;DHT22;8249;48.708;9.030;2023-05-10T05:25:51;12.60;99.90
16283;DHT22;8249;48.708;9.030;2023-05-10T05:28:18;12.70;99.90
16283;DHT22;8249;48.708;9.030;2023-05-10T05:30:45;12.70;99.90
16283;DHT22;8249;48.708;9.030;2023-05-10T05:33:13;12.70;99.90
16283;DHT22;8249;48.708;9.030;2023-05-10T05:35:41;12.70;99.90
16283;DHT22;8249;48.708;9.030;2023-05-10T05:38:08;12.80;99.90
16283;DHT22;8249;48.708;9.030;2023-05-10T05:40:36;12.70;99.90
16283;DHT22;8249;48.708;9.030;2023-05-10T05:43:03;12.80;99.90
16283;DHT22;8249;48.708;9.030;2023-05-10T05:45:30;12.90;99.90
16283;DHT22;8249;48.708;9.030;2023-05-10T05:47:57;12.90;99.90
16283;DHT22;8249;48.708;9.030;2023-05-10T05:50:24;12.80;99.90
16283;DHT22;8249;48.708;9.030;2023-05-10T05:52:51;12.90;99.90
16283;DHT22;8249;48.708;9.030;2023-05-10T05:55:18;12.90;99.90
16283;DHT22;8249;48.708;9.030;2023-05-10T05:57:46;13.00;99.90
16283;DHT22;8249;48.708;9.030;2023-05-10T06:00:14;12.90;99.90
16283;DHT22;8249;48.708;9.030;2023-05-10T06:02:41;13.00;99.90
16283;DHT22;8249;48.708;9.030;2023-05-10T06:05:08;13.00;99.90
16283;DHT22;8249;48.708;9.030;2023-05-10T06:07:35;13.10;99.90
16283;DHT22;8249;48.708;9.030;2023-05-10T06:10:02;13.10;99.90
16283;DHT22;8249;48.708;9.030;2023-05-10T06:12:29;13.20;99.90
16283;DHT22;8249;48.708;9.030;2023-05-10T06:14:57;13.20;99.90
16283;DHT22;8249;48.708;9.030;2023-05-10T06:17:24;13.20;99.90
16283;DHT22;8249;48.708;9.030;2023-05-10T06:19:52;13.10;99.90
16283;DHT22;8249;48.708;9.030;2023-05-10T06:22:18;13.00;99.90
16283;DHT22;8249;48.708;9.030;2023-05-10T06:24:47;13.10;99.90
16283;DHT22;8249;48.708;9.030;2023-05-10T06:27:14;13.20;99.90
16283;DHT22;8249;48.708;9.030;2023-05-10T06:29:41;13.20;99.90
16283;DHT22;8249;48.708;9.030;2023-05-10T06:32:09;13.20;99.90
16283;DHT22;8249;48.708;9.030;2023-05-10T06:34:36;13.20;99.90
16283;DHT22;8249;48.708;9.030;2023-05-10T06:37:03;13.20;99.90
16283;DHT22;8249;48.708;9.030;2023-05-10T06:39:30;13.20;99.90
16283;DHT22;8249;48.708;9.030;2023-05-10T06:41:57;13.20;99.90
16283;DHT22;8249;48.708;9.030;2023-05-10T06:44:28;13.20;99.90
16283;DHT22;8249;48.708;9.030;2023-05-10T06:46:55;13.10;99.90
16283;DHT22;8249;48.708;9.030;2023-05-10T06:49:23;13.20;99.90
16283;DHT22;8249;48.708;9.030;2023-05-10T06:51:50;13.20;99.90
16283;DHT22;8249;48.708;9.030;2023-05-10T06:54:17;13.30;99.90
16283;DHT22;8249;48.708;9.030;2023-05-10T06:56:44;13.30;99.90
16283;DHT22;8249;48.708;9.030;2023-05-10T06:59:11;13.40;99.90
16283;DHT22;8249;48.708;9.030;2023-05-10T07:01:39;13.50;99.90
16283;DHT22;8249;48.708;9.030;2023-05-10T07:04:06;13.50;99.90
16283;DHT22;8249;48.708;9.030;2023-05-10T07:06:35;13.60;99.90
16283;DHT22;8249;48.708;9.030;2023-05-10T07:09:02;13.60;99.90
16283;DHT22;8249;48.708;9.030;2023-05-10T07:11:29;13.70;99.90
16283;DHT22;8249;48.708;9.030;2023-05-10T07:13:56;13.80;99.90
16283;DHT22;8249;48.708;9.030;2023-05-10T07:16:23;13.90;99.90
16283;DHT22;8249;48.708;9.030;2023-05-10T07:18:49;14.00;99.90
16283;DHT22;8249;48.708;9.030;2023-05-10T07:21:18;14.00;99.90
16283;DHT22;8249;48.708;9.030;2023-05-10T07:23:46;14.00;99.90
16283;DHT22;8249;48.708;9.030;2023-05-10T07:26:13;14.00;99.90
16283;DHT22;8249;48.708;9.030;2023-05-10T07:28:41;14.10;99.90
16283;DHT22;8249;48.708;9.030;2023-05-10T07:31:07;14.10;99.90
16283;DHT22;8249;48.708;9.030;2023-05-10T07:33:34;14.10;99.90
16283;DHT22;8249;48.708;9.030;2023-05-10T07:36:02;14.20;99.90
16283;DHT22;8249;48.708;9.030;2023-05-10T07:38:28;14.30;99.90
16283;DHT22;8249;48.708;9.030;2023-05-10T07:40:57;14.20;99.90
16283;DHT22;8249;48.708;9.030;2023-05-10T07:43:24;14.20;99.90
16283;DHT22;8249;48.708;9.030;2023-05-10T07:45:51;14.30;99.90
16283;DHT22;8249;48.708;9.030;2023-05-10T07:48:18;14.30;99.90
16283;DHT22;8249;48.708;9.030;2023-05-10T07:50:45;14.30;99.90
16283;DHT22;8249;48.708;9.030;2023-05-10T07:53:12;14.30;99.90
16283;DHT22;8249;48.708;9.030;2023-05-10T07:55:38;14.30;99.90
16283;DHT22;8249;48.708;9.030;2023-05-10T07:58:07;14.30;99.90
16283;DHT22;8249;48.708;9.030;2023-05-10T08:00:34;14.30;99.90
16283;DHT22;8249;48.708;9.030;2023-05-10T08:03:00;14.40;99.90
16283;DHT22;8249;48.708;9.030;2023-05-10T08:05:27;14.40;99.90
16283;DHT22;8249;48.708;9.030;2023-05-10T08:07:54;14.40;99.90
16283;DHT22;8249;48.708;9.030;2023-05-10T08:10:21;14.50;99.90
16283;DHT22;8249;48.708;9.030;2023-05-10T08:12:48;14.60;99.90
16283;DHT22;8249;48.708;9.030;2023-05-10T08:15:16;14.60;99.90
16283;DHT22;8249;48.708;9.030;2023-05-10T08:17:43;14.80;99.90
16283;DHT22;8249;48.708;9.030;2023-05-10T08:20:10;14.90;99.90
16283;DHT22;8249;48.708;9.030;2023-05-10T08:22:38;14.90;99.90
16283;DHT22;8249;48.708;9.030;2023-05-10T08:25:06;14.80;99.90
16283;DHT22;8249;48.708;9.030;2023-05-10T08:27:33;14.90;99.90
16283;DHT22;8249;48.708;9.030;2023-05-10T08:29:59;14.90;99.90
16283;DHT22;8249;48.708;9.030;2023-05-10T08:32:28;14.90;99.90
16283;DHT22;8249;48.708;9.030;2023-05-10T08:34:55;15.00;99.90
16283;DHT22;8249;48.708;9.030;2023-05-10T08:37:23;15.00;99.90
16283;DHT22;8249;48.708;9.030;2023-05-10T08:39:50;15.00;99.90
16283;DHT22;8249;48.708;9.030;2023-05-10T08:42:22;15.00;99.90
16283;DHT22;8249;48.708;9.030;2023-05-10T08:44:53;15.00;99.90
16283;DHT22;8249;48.708;9.030;2023-05-10T08:47:20;15.10;99.90
16283;DHT22;8249;48.708;9.030;2023-05-10T08:49:49;15.30;99.90
16283;DHT22;8249;48.708;9.030;2023-05-10T08:52:17;15.40;99.90
16283;DHT22;8249;48.708;9.030;2023-05-10T08:54:45;15.50;99.90
16283;DHT22;8249;48.708;9.030;2023-05-10T08:57:12;15.40;99.90
16283;DHT22;8249;48.708;9.030;2023-05-10T08:59:39;15.40;99.90
16283;DHT22;8249;48.708;9.030;2023-05-10T09:02:06;15.30;99.90
16283;DHT22;8249;48.708;9.030;2023-05-10T09:04:36;15.30;99.90
16283;DHT22;8249;48.708;9.030;2023-05-10T09:07:05;15.20;99.90
16283;DHT22;8249;48.708;9.030;2023-05-10T09:09:32;15.20;99.90
16283;DHT22;8249;48.708;9.030;2023-05-10T09:12:00;15.20;99.90
16283;DHT22;8249;48.708;9.030;2023-05-10T09:14:27;15.30;99.90
16283;DHT22;8249;48.708;9.030;2023-05-10T09:16:55;15.30;99.90
16283;DHT22;8249;48.708;9.030;2023-05-10T09:19:22;15.30;99.90
16283;DHT22;8249;48.708;9.030;2023-05-10T09:21:49;15.20;99.90
16283;DHT22;8249;48.708;9.030;2023-05-10T09:24:17;15.20;99.90
16283;DHT22;8249;48.708;9.030;2023-05-10T09:26:48;15.20;99.90
16283;DHT22;8249;48.708;9.030;2023-05-10T09:29:15;15.30;99.90
16283;DHT22;8249;48.708;9.030;2023-05-10T09:31:46;15.40;99.90
16283;DHT22;8249;48.708;9.030;2023-05-10T09:34:18;15.50;99.90
16283;DHT22;8249;48.708;9.030;2023-05-10T09:36:52;15.60;99.90
16283;DHT22;8249;48.708;9.030;2023-05-10T09:39:21;15.80;99.90
16283;DHT22;8249;48.708;9.030;2023-05-10T09:41:56;16.10;99.90
16283;DHT22;8249;48.708;9.030;2023-05-10T09:44:25;16.40;99.90
16283;DHT22;8249;48.708;9.030;2023-05-10T09:46:52;16.70;99.90
16283;DHT22;8249;48.708;9.030;2023-05-10T09:49:21;17.00;99.90
16283;DHT22;8249;48.708;9.030;2023-05-10T09:52:00;17.00;99.90
16283;DHT22;8249;48.708;9.030;2023-05-10T09:54:28;16.70;99.90
16283;DHT22;8249;48.708;9.030;2023-05-10T09:56:56;16.60;99.90
16283;DHT22;8249;48.708;9.030;2023-05-10T09:59:25;16.70;99.90
16283;DHT22;8249;48.708;9.030;2023-05-10T10:01:52;16.80;99.90
16283;DHT22;8249;48.708;9.030;2023-05-10T10:04:20;17.10;99.90
16283;DHT22;8249;48.708;9.030;2023-05-10T10:06:58;17.30;99.90
16283;DHT22;8249;48.708;9.030;2023-05-10T10:09:28;17.60;99.90
16283;DHT22;8249;48.708;9.030;2023-05-10T10:11:55;17.80;99.90
16283;DHT22;8249;48.708;9.030;2023-05-10T10:14:22;18.00;99.90
16283;DHT22;8249;48.708;9.030;2023-05-10T10:16:50;18.20;99.90
16283;DHT22;8249;48.708;9.030;2023-05-10T10:19:18;18.40;99.90
16283;DHT22;8249;48.708;9.030;2023-05-10T10:21:45;18.50;99.90
16283;DHT22;8249;48.708;9.030;2023-05-10T10:24:13;18.60;99.90
16283;DHT22;8249;48.708;9.030;2023-05-10T10:26:42;18.60;99.90
16283;DHT22;8249;48.708;9.030;2023-05-10T10:29:18;18.80;99.90
16283;DHT22;8249;48.708;9.030;2023-05-10T10:31:51;19.10;99.90
16283;DHT22;8249;48.708;9.030;2023-05-10T10:34:25;19.00;99.90
16283;DHT22;8249;48.708;9.030;2023-05-10T10:36:54;18.90;99.90
16283;DHT22;8249;48.708;9.030;2023-05-10T10:39:22;18.90;99.90
16283;DHT22;8249;48.708;9.030;2023-05-10T10:41:53;18.80;99.90
16283;DHT22;8249;48.708;9.030;2023-05-10T10:44:33;18.70;99.90
16283;DHT22;8249;48.708;9.030;2023-05-10T10:47:02;18.20;99.90
16283;DHT22;8249;48.708;9.030;2023-05-10T10:49:32;17.20;99.90
16283;DHT22;8249;48.708;9.030;2023-05-10T10:52:22;16.50;99.90
16283;DHT22;8249;48.708;9.030;2023-05-10T10:54:53;16.00;99.90
16283;DHT22;8249;48.708;9.030;2023-05-10T10:57:22;15.30;99.90
16283;DHT22;8249;48.708;9.030;2023-05-10T10:59:51;15.00;99.90
16283;DHT22;8249;48.708;9.030;2023-05-10T11:02:34;14.70;99.90
16283;DHT22;8249;48.708;9.030;2023-05-10T11:05:40;14.60;99.90
16283;DHT22;8249;48.708;9.030;2023-05-10T11:08:13;14.50;99.90
16283;DHT22;8249;48.708;9.030;2023-05-10T11:10:48;14.40;99.90
16283;DHT22;8249;48.708;9.030;2023-05-10T11:13:16;14.40;99.90
16283;DHT22;8249;48.708;9.030;2023-05-10T11:15:53;14.50;99.90
16283;DHT22;8249;48.708;9.030;2023-05-10T11:18:23;14.50;99.90
16283;DHT22;8249;48.708;9.030;2023-05-10T11:20:51;14.50;99.90
16283;DHT22;8249;48.708;9.030;2023-05-10T11:23:18;14.70;99.90
16283;DHT22;8249;48.708;9.030;2023-05-10T11:25:48;14.70;99.90
16283;DHT22;8249;48.708;9.030;2023-05-10T11:28:18;14.90;99.90
16283;DHT22;8249;48.708;9.030;2023-05-10T11:30:45;14.90;99.90
16283;DHT22;8249;48.708;9.030;2023-05-10T11:33:16;15.00;99.90
16283;DHT22;8249;48.708;9.030;2023-05-10T11:35:43;15.20;99.90
16283;DHT22;8249;48.708;9.030;2023-05-10T11:38:11;15.30;99.90
16283;DHT22;8249;48.708;9.030;2023-05-10T11:40:40;15.40;99.90
16283;DHT22;8249;48.708;9.030;2023-05-10T11:43:08;15.50;99.90
16283;DHT22;8249;48.708;9.030;2023-05-10T11:45:37;15.70;99.90
16283;DHT22;8249;48.708;9.030;2023-05-10T11:48:04;15.80;99.90
16283;DHT22;8249;48.708;9.030;2023-05-10T11:50:32;16.10;99.90
16283;DHT22;8249;48.708;9.030;2023-05-10T11:52:59;16.40;99.90
16283;DHT22;8249;48.708;9.030;2023-05-10T11:55:26;16.50;99.90
16283;DHT22;8249;48.708;9.030;2023-05-10T11:57:59;16.80;99.90
16283;DHT22;8249;48.708;9.030;2023-05-10T12:00:26;16.90;99.90
16283;DHT22;8249;48.708;9.030;2023-05-10T12:02:55;16.90;99.90
16283;DHT22;8249;48.708;9.030;2023-05-10T12:05:23;17.10;99.90
16283;DHT22;8249;48.708;9.030;2023-05-10T12:07:50;17.00;99.90
16283;DHT22;8249;48.708;9.030;2023-05-10T12:10:25;16.80;99.90
16283;DHT22;8249;48.708;9.030;2023-05-10T12:12:56;16.60;99.90
16283;DHT22;8249;48.708;9.030;2023-05-10T12:15:24;16.30;99.90
16283;DHT22;8249;48.708;9.030;2023-05-10T12:17:51;16.20;99.90
16283;DHT22;8249;48.708;9.030;2023-05-10T12:20:21;16.30;99.90
16283;DHT22;8249;48.708;9.030;2023-05-10T12:22:51;16.30;99.90
16283;DHT22;8249;48.708;9.030;2023-05-10T12:25:18;16.30;99.90
16283;DHT22;8249;48.708;9.030;2023-05-10T12:27:50;16.30;99.90
16283;DHT22;8249;48.708;9.030;2023-05-10T12:30:22;16.10;99.90
16283;DHT22;8249;48.708;9.030;2023-05-10T12:32:49;16.00;99.90
16283;DHT22;8249;48.708;9.030;2023-05-10T12:35:17;15.90;99.90
16283;DHT22;8249;48.708;9.030;2023-05-10T12:37:47;15.80;99.90
16283;DHT22;8249;48.708;9.030;2023-05-10T12:40:15;15.70;99.90
16283;DHT22;8249;48.708;9.030;2023-05-10T12:42:42;15.70;99.90
16283;DHT22;8249;48.708;9.030;2023-05-10T12:45:10;15.70;99.90
16283;DHT22;8249;48.708;9.030;2023-05-10T12:47:38;15.80;99.90
16283;DHT22;8249;48.708;9.030;2023-05-10T12:50:06;15.90;99.90
16283;DHT22;8249;48.708;9.030;2023-05-10T12:52:33;16.00;99.90
16283;DHT22;8249;48.708;9.030;2023-05-10T12:55:01;16.20;99.90
16283;DHT22;8249;48.708;9.030;2023-05-10T12:57:29;16.40;99.90
16283;DHT22;8249;48.708;9.030;2023-05-10T12:59:56;16.60;99.90
16283;DHT22;8249;48.708;9.030;2023-05-10T13:02:23;16.70;99.90
16283;DHT22;8249;48.708;9.030;2023-05-10T13:04:50;17.00;99.90
16283;DHT22;8249;48.708;9.030;2023-05-10T13:07:17;17.10;99.90
16283;DHT22;8249;48.708;9.030;2023-05-10T13:09:44;17.20;99.90
16283;DHT22;8249;48.708;9.030;2023-05-10T13:12:12;17.40;99.90
16283;DHT22;8249;48.708;9.030;2023-05-10T13:14:40;17.50;99.90
16283;DHT22;8249;48.708;9.030;2023-05-10T13:17:07;17.50;99.90
16283;DHT22;8249;48.708;9.030;2023-05-10T13:19:34;17.40;99.90
16283;DHT22;8249;48.708;9.030;2023-05-10T13:22:02;17.40;99.90
16283;DHT22;8249;48.708;9.030;2023-05-10T13:24:30;17.30;99.90
16283;DHT22;8249;48.708;9.030;2023-05-10T13:26:57;17.10;99.90
16283;DHT22;8249;48.708;9.030;2023-05-10T13:29:26;16.90;99.90
16283;DHT22;8249;48.708;9.030;2023-05-10T13:31:53;16.60;99.90
16283;DHT22;8249;48.708;9.030;2023-05-10T13:34:20;16.50;99.90
16283;DHT22;8249;48.708;9.030;2023-05-10T13:36:47;16.60;99.90
16283;DHT22;8249;48.708;9.030;2023-05-10T13:39:14;16.80;99.90
16283;DHT22;8249;48.708;9.030;2023-05-10T13:41:41;17.00;99.90
16283;DHT22;8249;48.708;9.030;2023-05-10T13:44:08;17.10;99.90
16283;DHT22;8249;48.708;9.030;2023-05-10T13:46:37;17.00;99.90
16283;DHT22;8249;48.708;9.030;2023-05-10T13:49:05;16.90;99.90
16283;DHT22;8249;48.708;9.030;2023-05-10T13:51:33;17.00;99.90
16283;DHT22;8249;48.708;9.030;2023-05-10T13:54:00;17.10;99.90
16283;DHT22;8249;48.708;9.030;2023-05-10T13:56:27;17.20;99.90
16283;DHT22;8249;48.708;9.030;2023-05-10T13:58:56;17.00;99.90
16283;DHT22;8249;48.708;9.030;2023-05-10T14:01:23;16.90;99.90
16283;DHT22;8249;48.708;9.030;2023-05-10T14:03:52;16.90;99.90
16283;DHT22;8249;48.708;9.030;2023-05-10T14:06:19;16.80;99.90
16283;DHT22;8249;48.708;9.030;2023-05-10T14:08:47;16.90;99.90
16283;DHT22;8249;48.708;9.030;2023-05-10T14:11:14;16.80;99.90
16283;DHT22;8249;48.708;9.030;2023-05-10T14:13:41;16.80;99.90
16283;DHT22;8249;48.708;9.030;2023-05-10T14:16:08;16.90;99.90
16283;DHT22;8249;48.708;9.030;2023-05-10T14:18:35;16.90;99.90
16283;DHT22;8249;48.708;9.030;2023-05-10T14:21:03;16.90;99.90
16283;DHT22;8249;48.708;9.030;2023-05-10T14:23:30;16.90;99.90
16283;DHT22;8249;48.708;9.030;2023-05-10T14:25:57;16.90;99.90
16283;DHT22;8249;48.708;9.030;2023-05-10T14:28:24;16.80;99.90
16283;DHT22;8249;48.708;9.030;2023-05-10T14:30:51;16.80;99.90
16283;DHT22;8249;48.708;9.030;2023-05-10T14:33:18;16.70;99.90
16283;DHT22;8249;48.708;9.030;2023-05-10T14:35:46;16.70;99.90
16283;DHT22;8249;48.708;9.030;2023-05-10T14:38:15;16.80;99.90
16283;DHT22;8249;48.708;9.030;2023-05-10T14:40:42;16.70;99.90
16283;DHT22;8249;48.708;9.030;2023-05-10T14:43:09;16.60;99.90
16283;DHT22;8249;48.708;9.030;2023-05-10T14:45:36;16.60;99.90
16283;DHT22;8249;48.708;9.030;2023-05-10T14:48:03;16.40;99.90
16283;DHT22;8249;48.708;9.030;2023-05-10T14:50:31;16.50;99.90
16283;DHT22;8249;48.708;9.030;2023-05-10T14:52:58;16.60;99.90
16283;DHT22;8249;48.708;9.030;2023-05-10T14:55:27;16.60;99.90
16283;DHT22;8249;48.708;9.030;2023-05-10T14:57:53;16.70;99.90
16283;DHT22;8249;48.708;9.030;2023-05-10T15:00:21;16.90;99.90
16283;DHT22;8249;48.708;9.030;2023-05-10T15:02:48;17.00;99.90
16283;DHT22;8249;48.708;9.030;2023-05-10T15:05:15;17.20;99.90
16283;DHT22;8249;48.708;9.030;2023-05-10T15:07:42;17.30;99.90
16283;DHT22;8249;48.708;9.030;2023-05-10T15:10:10;17.20;99.90
16283;DHT22;8249;48.708;9.030;2023-05-10T15:12:38;17.10;99.90
16283;DHT22;8249;48.708;9.030;2023-05-10T15:15:06;17.10;99.90
16283;DHT22;8249;48.708;9.030;2023-05-10T15:17:34;17.10;99.90
16283;DHT22;8249;48.708;9.030;2023-05-10T15:20:01;17.10;99.90
16283;DHT22;8249;48.708;9.030;2023-05-10T15:22:29;17.00;99.90
16283;DHT22;8249;48.708;9.030;2023-05-10T15:24:57;17.10;99.90
16283;DHT22;8249;48.708;9.030;2023-05-10T15:27:24;17.10;99.90
16283;DHT22;8249;48.708;9.030;2023-05-10T15:29:53;17.00;99.90
16283;DHT22;8249;48.708;9.030;2023-05-10T15:32:20;17.00;99.90
16283;DHT22;8249;48.708;9.030;2023-05-10T15:34:47;17.10;99.90
16283;DHT22;8249;48.708;9.030;2023-05-10T15:37:14;17.10;99.90
16283;DHT22;8249;48.708;9.030;2023-05-10T15:39:41;17.00;99.90
16283;DHT22;8249;48.708;9.030;2023-05-10T15:42:08;17.20;99.90
16283;DHT22;8249;48.708;9.030;2023-05-10T15:44:35;17.30;99.90
16283;DHT22;8249;48.708;9.030;2023-05-10T15:47:05;17.30;99.90
16283;DHT22;8249;48.708;9.030;2023-05-10T15:49:32;17.30;99.90
16283;DHT22;8249;48.708;9.030;2023-05-10T15:51:59;17.30;99.90
16283;DHT22;8249;48.708;9.030;2023-05-10T15:54:26;17.20;99.90